Time;durP1;ratioP1;P1;durP2;ratioP2;P2;SDS_P1;SDS_P2;PMS_P1;PMS_P2;Temp;Humidity;BMP_temperature;BMP_pressure;BME280_temperature;BME280_humidity;BME280_pressure;Samples;Min_cycle;Max_cycle;Signal;HPM_P1;HPM_P2
2022/10/03 00:41:41;;;;;;;0.50;0.50;;;9.50;99.90;;;;;;5144309;27;20335;-74
2022/10/03 00:44:30;;;;;;;0.60;0.60;;;9.40;99.90;;;;;;5084820;22;20226;-82
2022/10/03 00:47:16;;;;;;;0.40;0.40;;;9.40;99.90;;;;;;5032201;28;20203;-81
2022/10/03 00:50:21;;;;;;;0.67;0.67;;;9.40;99.90;;;;;;5013983;28;20612;-81
2022/10/03 00:53:03;;;;;;;0.50;0.50;;;9.40;99.90;;;;;;4895086;29;20216;-81
2022/10/03 00:56:14;;;;;;;0.60;0.60;;;9.40;99.90;;;;;;4883934;29;20730;-81
2022/10/03 00:59:01;;;;;;;0.50;0.50;;;9.30;99.90;;;;;;4791923;29;20262;-80
2022/10/03 01:04:09;;;;;;;0.53;0.53;;;9.20;99.90;;;;;;5150443;27;20287;-81
2022/10/03 01:06:46;;;;;;;0.57;0.57;;;9.10;99.90;;;;;;5118012;28;20227;-81
2022/10/03 01:09:21;;;;;;;0.60;0.60;;;9.10;99.90;;;;;;5112447;28;20667;-81
2022/10/03 01:12:14;;;;;;;0.60;0.60;;;9.20;99.90;;;;;;5086400;28;20576;-81
2022/10/03 01:15:06;;;;;;;0.57;0.57;;;9.20;99.90;;;;;;5063062;28;20195;-81
2022/10/03 01:17:48;;;;;;;0.53;0.53;;;9.40;99.90;;;;;;4971636;28;20217;-81
2022/10/03 01:20:25;;;;;;;0.70;0.70;;;9.50;99.90;;;;;;4925201;29;20233;-80
2022/10/03 01:23:09;;;;;;;0.70;0.70;;;9.60;99.90;;;;;;4838546;29;20226;-80
2022/10/03 01:32:00;;;;;;;0.53;0.53;;;9.40;99.90;;;;;;5110446;27;20584;-79
2022/10/03 01:34:37;;;;;;;0.60;0.60;;;9.50;99.90;;;;;;5090193;28;20192;-79
2022/10/03 01:37:30;;;;;;;0.60;0.60;;;9.50;99.90;;;;;;5090092;28;20188;-79
2022/10/03 01:40:12;;;;;;;0.50;0.50;;;9.60;99.90;;;;;;5089925;28;20225;-79
2022/10/03 01:42:49;;;;;;;0.60;0.60;;;9.60;99.90;;;;;;5096361;28;20590;-79
2022/10/03 01:45:35;;;;;;;0.60;0.60;;;9.60;99.90;;;;;;5100531;28;20213;-79
2022/10/03 01:48:03;;;;;;;0.50;0.50;;;9.50;99.90;;;;;;5089890;28;20170;-79
2022/10/03 01:50:43;;;;;;;0.50;0.50;;;9.50;99.90;;;;;;5089357;28;20221;-79
2022/10/03 01:53:37;;;;;;;0.60;0.60;;;9.70;99.90;;;;;;5090033;28;20781;-80
2022/10/03 01:56:07;;;;;;;0.60;0.60;;;9.60;99.90;;;;;;5090826;28;20178;-79
2022/10/03 01:59:20;;;;;;;0.53;0.53;;;9.70;99.90;;;;;;5091773;28;20177;-79
2022/10/03 02:01:51;;;;;;;0.70;0.70;;;9.70;99.90;;;;;;5030018;28;20530;-79
2022/10/03 02:04:35;;;;;;;0.53;0.53;;;9.70;99.90;;;;;;5029155;28;20188;-80
2022/10/03 02:07:25;;;;;;;0.60;0.60;;;9.70;99.90;;;;;;5066640;28;20190;-80
2022/10/03 02:10:28;;;;;;;0.50;0.50;;;9.70;99.90;;;;;;5089996;28;20347;-80
2022/10/03 02:13:15;;;;;;;0.57;0.57;;;9.80;99.90;;;;;;5090015;28;20176;-81
2022/10/03 02:15:53;;;;;;;0.50;0.50;;;9.80;99.90;;;;;;5090327;28;20257;-80
2022/10/03 02:18:35;;;;;;;0.70;0.70;;;9.90;99.90;;;;;;5090673;28;20174;-80
2022/10/03 02:21:12;;;;;;;0.50;0.50;;;9.90;99.90;;;;;;5094452;28;20327;-79
2022/10/03 02:23:43;;;;;;;0.53;0.53;;;9.90;99.90;;;;;;5105005;28;20177;-79
2022/10/03 02:26:27;;;;;;;0.70;0.70;;;10.00;99.90;;;;;;5103113;28;20174;-79
2022/10/03 02:29:30;;;;;;;0.60;0.60;;;9.90;99.90;;;;;;5091172;28;20189;-79
2022/10/03 02:32:19;;;;;;;0.60;0.60;;;10.00;99.90;;;;;;5087731;28;20192;-80
2022/10/03 02:35:06;;;;;;;0.60;0.60;;;10.00;99.90;;;;;;5089372;28;20208;-79
2022/10/03 02:37:54;;;;;;;0.70;0.70;;;10.10;99.90;;;;;;5089006;28;20227;-79
2022/10/03 02:40:26;;;;;;;0.50;0.50;;;10.10;99.90;;;;;;5080090;28;20232;-80
2022/10/03 02:43:10;;;;;;;0.53;0.53;;;10.20;99.90;;;;;;5074507;28;20665;-80
2022/10/03 02:46:01;;;;;;;0.50;0.50;;;10.20;99.90;;;;;;5074987;28;20735;-79
2022/10/03 02:48:57;;;;;;;0.70;0.70;;;10.20;99.90;;;;;;5075823;28;20190;-80
2022/10/03 02:51:44;;;;;;;0.50;0.50;;;10.20;99.90;;;;;;5074888;28;20647;-80
2022/10/03 02:54:25;;;;;;;0.60;0.60;;;10.30;99.90;;;;;;5075070;28;20182;-80
2022/10/03 02:57:16;;;;;;;0.60;0.60;;;10.20;99.90;;;;;;5074843;28;20178;-79
2022/10/03 03:00:05;;;;;;;0.60;0.60;;;10.20;99.90;;;;;;5074558;28;20297;-80
2022/10/03 03:03:01;;;;;;;0.70;0.70;;;10.20;99.90;;;;;;5075355;28;20632;-79
2022/10/03 03:05:48;;;;;;;0.50;0.50;;;10.10;99.90;;;;;;5073698;28;20240;-80
2022/10/03 03:08:42;;;;;;;0.60;0.60;;;10.10;99.90;;;;;;5074894;28;20574;-80
2022/10/03 03:11:10;;;;;;;0.40;0.40;;;10.00;99.90;;;;;;5074565;28;20218;-80
2022/10/03 03:14:08;;;;;;;0.60;0.60;;;9.90;99.90;;;;;;5074657;28;20198;-80
2022/10/03 03:17:13;;;;;;;0.60;0.60;;;9.80;99.90;;;;;;5076022;28;20182;-79
2022/10/03 03:20:10;;;;;;;0.60;0.60;;;9.60;99.90;;;;;;5074491;28;20198;-80
2022/10/03 03:22:42;;;;;;;0.60;0.60;;;9.50;99.90;;;;;;5053741;28;20186;-79
2022/10/03 03:25:26;;;;;;;0.50;0.50;;;9.30;99.90;;;;;;5074701;28;20646;-79
2022/10/03 03:28:26;;;;;;;0.70;0.70;;;9.30;99.90;;;;;;5075462;28;20173;-80
2022/10/03 03:31:07;;;;;;;0.60;0.60;;;9.30;99.90;;;;;;5074264;28;20234;-79
2022/10/03 03:33:52;;;;;;;0.60;0.60;;;9.20;99.90;;;;;;5075251;28;20166;-80
2022/10/03 03:36:36;;;;;;;0.60;0.60;;;9.20;99.90;;;;;;5074748;28;20179;-80
2022/10/03 03:39:26;;;;;;;0.60;0.60;;;9.10;99.90;;;;;;5074599;28;20178;-79
2022/10/03 03:42:21;;;;;;;0.67;0.67;;;9.20;99.90;;;;;;5093460;28;20170;-81
2022/10/03 03:45:06;;;;;;;0.70;0.70;;;9.20;99.90;;;;;;5095786;28;20638;-79
2022/10/03 03:47:59;;;;;;;0.60;0.60;;;9.00;99.90;;;;;;5094959;28;20174;-80
2022/10/03 03:50:35;;;;;;;0.60;0.60;;;9.00;99.90;;;;;;5092153;28;20558;-80
2022/10/03 03:53:46;;;;;;;0.60;0.60;;;8.90;99.90;;;;;;5095629;28;20180;-79
2022/10/03 03:56:32;;;;;;;0.57;0.57;;;8.70;99.90;;;;;;5061438;28;20214;-79
2022/10/03 03:59:28;;;;;;;0.53;0.53;;;8.50;99.90;;;;;;5097705;28;20177;-79
2022/10/03 04:02:14;;;;;;;0.60;0.60;;;8.50;99.90;;;;;;5096334;28;20181;-80
2022/10/03 04:05:00;;;;;;;0.60;0.60;;;8.40;99.90;;;;;;5093694;28;20184;-80
2022/10/03 04:07:48;;;;;;;0.70;0.70;;;8.50;99.90;;;;;;5093527;28;20703;-79
2022/10/03 04:10:19;;;;;;;0.70;0.70;;;8.60;99.90;;;;;;5091221;28;20225;-79
2022/10/03 04:13:10;;;;;;;0.70;0.70;;;8.60;99.90;;;;;;5093955;28;20200;-79
2022/10/03 04:16:06;;;;;;;0.60;0.60;;;8.70;99.90;;;;;;5093681;28;20181;-80
2022/10/03 04:18:58;;;;;;;0.50;0.50;;;8.60;99.90;;;;;;5079981;28;20182;-79
2022/10/03 04:22:00;;;;;;;0.60;0.60;;;8.70;99.90;;;;;;5090820;28;20194;-79
2022/10/03 04:24:42;;;;;;;0.60;0.60;;;8.80;99.90;;;;;;5093859;28;20552;-79
2022/10/03 04:27:19;;;;;;;0.70;0.70;;;8.90;99.90;;;;;;5099389;28;20251;-79
2022/10/03 04:30:01;;;;;;;0.77;0.77;;;8.90;99.90;;;;;;5099263;28;20217;-79
2022/10/03 04:32:56;;;;;;;0.70;0.70;;;8.90;99.90;;;;;;5101830;28;20178;-80
2022/10/03 04:35:49;;;;;;;0.60;0.60;;;8.90;99.90;;;;;;5101326;28;20552;-80
2022/10/03 04:38:48;;;;;;;0.60;0.60;;;9.00;99.90;;;;;;5100302;28;20235;-79
2022/10/03 04:41:41;;;;;;;0.60;0.60;;;9.10;99.90;;;;;;5082798;28;20198;-81
2022/10/03 04:44:44;;;;;;;0.60;0.60;;;9.20;99.90;;;;;;5078073;28;20630;-80
2022/10/03 04:48:02;;;;;;;0.63;0.63;;;9.20;99.90;;;;;;5079103;28;20808;-79
2022/10/03 04:50:47;;;;;;;0.57;0.57;;;9.20;99.90;;;;;;5074564;28;20660;-79
2022/10/03 04:53:32;;;;;;;0.70;0.70;;;9.20;99.90;;;;;;5098890;28;20177;-81
2022/10/03 04:56:40;;;;;;;0.70;0.70;;;9.20;99.90;;;;;;5097092;28;20256;-79
2022/10/03 04:59:11;;;;;;;0.60;0.60;;;9.20;99.90;;;;;;5086063;28;20188;-81
2022/10/03 05:01:52;;;;;;;0.60;0.60;;;9.30;99.90;;;;;;5093579;28;20624;-79
2022/10/03 05:04:35;;;;;;;0.60;0.60;;;9.30;99.90;;;;;;5096598;28;20170;-80
2022/10/03 05:07:24;;;;;;;0.73;0.73;;;9.40;99.90;;;;;;5099071;28;20182;-79
2022/10/03 05:09:58;;;;;;;0.70;0.70;;;9.40;99.90;;;;;;5097680;28;20217;-79
2022/10/03 05:12:49;;;;;;;0.70;0.70;;;9.30;99.90;;;;;;5100993;28;20193;-79
2022/10/03 05:15:32;;;;;;;0.70;0.70;;;9.30;99.90;;;;;;5102173;28;20540;-80
2022/10/03 05:18:10;;;;;;;0.53;0.53;;;9.40;99.90;;;;;;5102738;28;20178;-79
2022/10/03 05:20:54;;;;;;;0.63;0.63;;;9.40;99.90;;;;;;5097873;28;20201;-79
2022/10/03 05:23:43;;;;;;;0.50;0.50;;;9.50;99.90;;;;;;5102329;28;20733;-80
2022/10/03 05:26:12;;;;;;;0.50;0.50;;;9.50;99.90;;;;;;5102615;28;20174;-80
2022/10/03 05:28:58;;;;;;;0.60;0.60;;;9.60;99.90;;;;;;5103189;28;20192;-79
2022/10/03 05:31:49;;;;;;;0.80;0.80;;;9.60;99.90;;;;;;5098780;28;20728;-81
2022/10/03 05:34:52;;;;;;;0.70;0.70;;;9.50;99.90;;;;;;5103583;28;20173;-78
2022/10/03 05:37:50;;;;;;;0.70;0.70;;;9.40;99.90;;;;;;5102242;28;20181;-78
2022/10/03 05:40:28;;;;;;;0.50;0.50;;;9.40;99.90;;;;;;5097269;28;20229;-80
2022/10/03 05:43:40;;;;;;;0.70;0.70;;;9.50;99.90;;;;;;5100225;28;20810;-78
2022/10/03 05:46:46;;;;;;;0.60;0.60;;;9.60;99.90;;;;;;5101143;28;20585;-80
2022/10/03 05:49:44;;;;;;;0.50;0.50;;;9.60;99.90;;;;;;5102407;28;20241;-80
2022/10/03 05:52:38;;;;;;;0.60;0.60;;;9.60;99.90;;;;;;5027406;28;20196;-80
2022/10/03 05:55:15;;;;;;;0.60;0.60;;;9.80;99.90;;;;;;5080768;28;20228;-80
2022/10/03 05:58:19;;;;;;;0.50;0.50;;;9.80;99.90;;;;;;5079807;28;20185;-80
2022/10/03 06:01:11;;;;;;;0.60;0.60;;;9.90;99.90;;;;;;5078940;28;20195;-80
2022/10/03 06:04:04;;;;;;;0.60;0.60;;;9.90;99.90;;;;;;5080550;28;20171;-79
2022/10/03 06:06:45;;;;;;;0.50;0.50;;;9.90;99.90;;;;;;5086867;28;20174;-80
2022/10/03 06:09:48;;;;;;;0.60;0.60;;;10.00;99.90;;;;;;5086560;28;20677;-79
2022/10/03 06:12:45;;;;;;;0.53;0.53;;;10.00;99.90;;;;;;5096335;28;20185;-81
2022/10/03 06:15:38;;;;;;;0.50;0.50;;;9.90;99.90;;;;;;5101541;28;20185;-80
2022/10/03 06:18:31;;;;;;;0.60;0.60;;;9.90;99.90;;;;;;5108020;28;20174;-79
2022/10/03 06:21:39;;;;;;;0.50;0.50;;;9.90;99.90;;;;;;5101643;28;20206;-80
2022/10/03 06:24:33;;;;;;;0.50;0.50;;;9.90;99.90;;;;;;5082871;28;20182;-80
2022/10/03 06:27:11;;;;;;;0.60;0.60;;;10.00;99.90;;;;;;5099343;28;20173;-80
2022/10/03 06:29:49;;;;;;;0.60;0.60;;;10.00;99.90;;;;;;5096697;28;20220;-84
2022/10/03 06:32:17;;;;;;;0.60;0.60;;;10.00;99.90;;;;;;5099686;28;20178;-80
2022/10/03 06:34:57;;;;;;;0.50;0.50;;;10.10;99.90;;;;;;5099181;28;20201;-83
2022/10/03 06:37:51;;;;;;;0.60;0.60;;;10.30;99.90;;;;;;5099884;28;20172;-81
2022/10/03 06:40:32;;;;;;;0.50;0.50;;;10.30;99.90;;;;;;5090287;28;20201;-82
2022/10/03 06:43:20;;;;;;;0.53;0.53;;;10.30;99.90;;;;;;5108049;28;20264;-81
2022/10/03 06:45:54;;;;;;;0.60;0.60;;;10.30;99.90;;;;;;5100959;28;20185;-81
2022/10/03 06:48:57;;;;;;;0.57;0.57;;;10.40;99.90;;;;;;5109230;28;20180;-81
2022/10/03 06:51:59;;;;;;;0.60;0.60;;;10.40;99.90;;;;;;5101238;28;20241;-83
2022/10/03 06:54:49;;;;;;;0.60;0.60;;;10.50;99.90;;;;;;5103115;28;20196;-81
2022/10/03 06:57:53;;;;;;;0.60;0.60;;;10.50;99.90;;;;;;5102771;28;20177;-82
2022/10/03 07:00:22;;;;;;;0.60;0.60;;;10.60;99.90;;;;;;5097548;28;20219;-82
2022/10/03 07:03:22;;;;;;;0.60;0.60;;;10.80;99.90;;;;;;5100429;28;20178;-82
2022/10/03 07:06:00;;;;;;;0.50;0.50;;;11.80;99.90;;;;;;5100801;28;20170;-83
2022/10/03 07:08:31;;;;;;;0.43;0.43;;;13.50;99.90;;;;;;5108065;28;20203;-84
2022/10/03 07:11:06;;;;;;;0.60;0.60;;;13.70;99.90;;;;;;5096016;28;20296;-81
2022/10/03 07:14:07;;;;;;;0.40;0.40;;;12.70;99.90;;;;;;5100563;28;20169;-81
2022/10/03 07:16:47;;;;;;;0.50;0.50;;;12.40;99.90;;;;;;5106944;28;20178;-78
2022/10/03 07:19:39;;;;;;;0.40;0.40;;;12.20;99.90;;;;;;5106244;28;20181;-78
2022/10/03 07:22:08;;;;;;;0.60;0.60;;;12.10;99.90;;;;;;5076457;28;20171;-78
2022/10/03 07:24:48;;;;;;;0.40;0.40;;;11.90;99.90;;;;;;5089128;28;20189;-78
2022/10/03 07:27:44;;;;;;;0.50;0.50;;;11.80;99.90;;;;;;5095756;28;20188;-79
2022/10/03 07:30:24;;;;;;;0.40;0.40;;;11.60;99.90;;;;;;5095979;28;20245;-77
2022/10/03 07:33:23;;;;;;;0.40;0.40;;;11.60;99.90;;;;;;5099568;28;20178;-77
2022/10/03 07:39:16;;;;;;;0.50;0.50;;;11.60;99.90;;;;;;5074973;28;20247;-78
2022/10/03 07:41:51;;;;;;;0.50;0.50;;;11.60;99.90;;;;;;5091336;28;20213;-78
2022/10/03 07:45:05;;;;;;;0.47;0.47;;;11.60;99.90;;;;;;5095276;28;20204;-78
2022/10/03 07:47:45;;;;;;;0.60;0.60;;;11.60;99.90;;;;;;4993349;28;20256;-78
2022/10/03 07:50:43;;;;;;;0.50;0.50;;;11.70;99.90;;;;;;4992450;28;20696;-78
2022/10/03 07:53:23;;;;;;;0.60;0.60;;;11.70;99.90;;;;;;5076875;28;20225;-79
2022/10/03 07:56:15;;;;;;;0.40;0.40;;;11.70;99.90;;;;;;5094315;28;20173;-78
2022/10/03 07:58:58;;;;;;;0.60;0.60;;;11.60;99.90;;;;;;5095475;28;20555;-78
2022/10/03 08:01:32;;;;;;;0.50;0.50;;;11.70;99.90;;;;;;5096441;28;20609;-78
2022/10/03 08:04:34;;;;;;;0.50;0.50;;;11.70;99.90;;;;;;5095985;28;20265;-79
2022/10/03 08:07:38;;;;;;;0.60;0.60;;;11.70;99.90;;;;;;5093480;28;20203;-82
2022/10/03 08:10:53;;;;;;;0.57;0.57;;;11.80;99.90;;;;;;5094026;28;20213;-78
2022/10/03 08:13:30;;;;;;;0.40;0.40;;;11.80;99.90;;;;;;5095747;28;20177;-78
2022/10/03 08:16:18;;;;;;;0.40;0.40;;;11.90;99.90;;;;;;5095787;28;20201;-79
2022/10/03 08:19:17;;;;;;;0.50;0.50;;;11.80;99.90;;;;;;5094792;28;20169;-79
2022/10/03 08:22:16;;;;;;;0.50;0.50;;;11.80;99.90;;;;;;5094047;28;20193;-79
2022/10/03 08:25:25;;;;;;;0.43;0.43;;;11.80;99.90;;;;;;5094934;28;20170;-79
2022/10/03 08:28:01;;;;;;;0.40;0.40;;;11.80;99.90;;;;;;5094634;28;20174;-81
2022/10/03 08:30:57;;;;;;;0.50;0.50;;;11.80;99.90;;;;;;5093981;28;20220;-78
2022/10/03 08:33:41;;;;;;;0.50;0.50;;;12.00;99.90;;;;;;5094847;28;20710;-80
2022/10/03 08:36:44;;;;;;;0.50;0.50;;;12.10;99.90;;;;;;5094690;28;20173;-79
2022/10/03 08:39:31;;;;;;;0.50;0.50;;;12.30;99.90;;;;;;5084381;28;20189;-81
2022/10/03 08:42:16;;;;;;;0.43;0.43;;;12.40;99.90;;;;;;5094647;28;20272;-80
2022/10/03 08:45:02;;;;;;;0.40;0.40;;;12.40;99.90;;;;;;5096621;28;20185;-80
2022/10/03 08:48:16;;;;;;;0.40;0.40;;;12.40;99.90;;;;;;5095022;28;20624;-80
2022/10/03 08:50:58;;;;;;;0.40;0.40;;;12.30;99.90;;;;;;5091066;28;20255;-81
2022/10/03 08:53:40;;;;;;;0.50;0.50;;;12.20;99.90;;;;;;5095872;28;20196;-81
2022/10/03 08:56:14;;;;;;;0.50;0.50;;;12.20;99.90;;;;;;5092570;28;20231;-82
2022/10/03 08:59:14;;;;;;;0.40;0.40;;;12.10;99.90;;;;;;5093581;28;20178;-82
2022/10/03 09:01:59;;;;;;;0.40;0.40;;;12.10;99.90;;;;;;5085829;28;20281;-82
2022/10/03 09:04:43;;;;;;;0.40;0.40;;;12.20;99.90;;;;;;5075661;28;20289;-79
2022/10/03 09:07:46;;;;;;;0.50;0.50;;;12.20;99.90;;;;;;5081572;28;20193;-81
2022/10/03 09:10:23;;;;;;;0.50;0.50;;;12.40;99.90;;;;;;5073590;28;20711;-79
2022/10/03 09:13:01;;;;;;;0.60;0.60;;;12.40;99.90;;;;;;5089753;28;20177;-80
2022/10/03 09:15:56;;;;;;;0.60;0.60;;;12.50;99.90;;;;;;5077308;28;20705;-82
2022/10/03 09:18:59;;;;;;;0.57;0.57;;;13.10;99.90;;;;;;5091291;28;20227;-80
2022/10/03 09:21:34;;;;;;;0.60;0.60;;;12.90;99.90;;;;;;5072652;28;20415;-79
2022/10/03 09:24:18;;;;;;;0.40;0.40;;;12.70;99.90;;;;;;5087017;28;20276;-79
2022/10/03 09:26:44;;;;;;;0.50;0.50;;;12.70;99.90;;;;;;5092497;28;20250;-80
2022/10/03 09:30:02;;;;;;;0.40;0.40;;;12.60;99.90;;;;;;5090788;28;20760;-78
2022/10/03 09:32:52;;;;;;;0.50;0.50;;;12.40;99.90;;;;;;5086983;28;20612;-79
2022/10/03 09:35:39;;;;;;;0.50;0.50;;;12.50;99.90;;;;;;5073744;28;20185;-78
2022/10/03 09:38:27;;;;;;;0.50;0.50;;;12.60;99.90;;;;;;5092079;28;20174;-79
2022/10/03 09:41:16;;;;;;;0.60;0.60;;;12.70;99.90;;;;;;5089198;28;20186;-79
2022/10/03 09:44:11;;;;;;;0.50;0.50;;;12.90;99.90;;;;;;5089254;28;20579;-78
2022/10/03 09:50:18;;;;;;;0.50;0.50;;;13.40;99.90;;;;;;5091102;28;20239;-78
2022/10/03 09:53:23;;;;;;;0.50;0.50;;;13.50;99.90;;;;;;5093190;28;20616;-80
2022/10/03 09:56:26;;;;;;;0.50;0.50;;;14.40;99.90;;;;;;5092846;28;20535;-79
2022/10/03 09:59:04;;;;;;;0.40;0.40;;;16.60;99.90;;;;;;5104577;28;20162;-80
2022/10/03 10:01:42;;;;;;;0.40;0.40;;;16.10;1.00;;;;;;5096679;28;20266;-82
2022/10/03 10:04:39;;;;;;;0.40;0.40;;;15.20;1.00;;;;;;5099095;28;20476;-81
2022/10/03 10:07:42;;;;;;;0.30;0.30;;;14.40;1.00;;;;;;5100209;28;20174;-79
2022/10/03 10:10:45;;;;;;;0.40;0.40;;;14.00;1.00;;;;;;5098675;28;20213;-78
2022/10/03 10:14:07;;;;;;;0.40;0.40;;;13.90;51.60;;;;;;5100228;28;20178;-81
2022/10/03 10:16:52;;;;;;;0.40;0.40;;;14.10;1.00;;;;;;5009840;28;20252;-81
2022/10/03 10:19:41;;;;;;;0.50;0.50;;;15.20;1.00;;;;;;5021795;28;20184;-80
2022/10/03 10:22:18;;;;;;;0.30;0.30;;;16.70;99.90;;;;;;5076879;28;20190;-81
2022/10/03 10:24:55;;;;;;;0.50;0.50;;;18.40;1.00;;;;;;5086404;28;20246;-81
2022/10/03 10:27:54;;;;;;;0.30;0.30;;;18.20;1.00;;;;;;5093145;28;20224;-82
2022/10/03 10:30:58;;;;;;;0.40;0.40;;;17.40;1.00;;;;;;5093182;28;20304;-81
2022/10/03 10:33:57;;;;;;;0.33;0.33;;;16.70;99.90;;;;;;5093654;28;20580;-80
2022/10/03 10:36:50;;;;;;;0.40;0.40;;;16.30;1.00;;;;;;5093941;28;20196;-81
2022/10/03 10:39:24;;;;;;;0.40;0.40;;;15.70;1.00;;;;;;5093389;28;20181;-80
2022/10/03 10:42:23;;;;;;;0.47;0.47;;;15.30;1.00;;;;;;5092760;28;20312;-81
2022/10/03 10:45:23;;;;;;;0.30;0.30;;;15.10;1.00;;;;;;5093935;28;20186;-82
2022/10/03 10:48:26;;;;;;;0.30;0.30;;;14.90;1.00;;;;;;5093494;28;20188;-82
2022/10/03 10:51:16;;;;;;;0.40;0.40;;;14.60;1.00;;;;;;5093065;28;20220;-82
2022/10/03 10:54:16;;;;;;;0.40;0.40;;;14.80;1.00;;;;;;5093742;28;20186;-81
2022/10/03 10:57:00;;;;;;;0.40;0.40;;;14.90;1.00;;;;;;5093190;28;20583;-81
2022/10/03 10:59:56;;;;;;;0.40;0.40;;;15.30;1.00;;;;;;5093593;28;20182;-83
2022/10/03 11:03:03;;;;;;;0.50;0.50;;;15.30;1.00;;;;;;5093424;28;20260;-82
2022/10/03 11:05:53;;;;;;;0.40;0.40;;;16.70;1.00;;;;;;5096144;28;20189;-81
2022/10/03 11:08:37;;;;;;;0.40;0.40;;;18.50;99.90;;;;;;5098497;28;20190;-84
2022/10/03 11:11:41;;;;;;;0.40;0.40;;;17.80;53.20;;;;;;5107282;28;20217;-81
2022/10/03 11:14:12;;;;;;;0.50;0.50;;;17.30;1.00;;;;;;5088711;28;20292;-81
2022/10/03 11:17:01;;;;;;;0.40;0.40;;;17.50;1.00;;;;;;5111035;28;20170;-81
2022/10/03 11:19:40;;;;;;;0.30;0.30;;;17.70;56.00;;;;;;5114514;28;20182;-83
2022/10/03 11:22:37;;;;;;;0.40;0.40;;;17.20;99.90;;;;;;5113849;28;20241;-83
2022/10/03 11:25:25;;;;;;;0.50;0.50;;;17.60;1.00;;;;;;5088481;28;20186;-83
2022/10/03 11:27:56;;;;;;;0.40;0.40;;;18.80;1.00;;;;;;5092997;28;20264;-81
2022/10/03 11:31:00;;;;;;;0.30;0.30;;;19.70;99.90;;;;;;5092441;28;20217;-80
2022/10/03 11:33:48;;;;;;;0.30;0.30;;;19.10;99.90;;;;;;5095071;28;20562;-81
2022/10/03 11:36:16;;;;;;;0.40;0.40;;;18.00;99.90;;;;;;5083742;28;20265;-81
2022/10/03 11:39:01;;;;;;;0.50;0.50;;;19.60;99.90;;;;;;5074923;28;20646;-82
2022/10/03 11:41:35;;;;;;;0.50;0.50;;;19.10;69.40;;;;;;5092393;28;20199;-81
2022/10/03 11:44:19;;;;;;;0.40;0.40;;;17.90;99.90;;;;;;5092657;28;20173;-81
2022/10/03 11:47:02;;;;;;;0.47;0.47;;;17.20;1.00;;;;;;5094363;28;20170;-81
2022/10/03 11:49:47;;;;;;;0.40;0.40;;;16.80;1.00;;;;;;5093570;28;20188;-82
2022/10/03 11:52:49;;;;;;;0.40;0.40;;;17.00;1.00;;;;;;5074620;28;20174;-80
2022/10/03 11:55:24;;;;;;;0.40;0.40;;;19.60;62.10;;;;;;5088995;28;20519;-81
2022/10/03 11:58:31;;;;;;;0.40;0.40;;;21.50;1.00;;;;;;5086635;28;20217;-83
2022/10/03 12:01:27;;;;;;;0.40;0.40;;;19.50;1.00;;;;;;5096456;28;20288;-81
2022/10/03 12:04:18;;;;;;;0.40;0.40;;;17.50;1.00;;;;;;5094574;28;20175;-81
2022/10/03 12:10:02;;;;;;;0.50;0.50;;;16.50;99.90;;;;;;5095943;28;20258;-83
2022/10/03 12:12:38;;;;;;;0.50;0.50;;;19.70;99.90;;;;;;5092964;28;20540;-83
2022/10/03 12:15:25;;;;;;;0.40;0.40;;;20.60;1.00;;;;;;5102553;28;20204;-81
2022/10/03 12:18:33;;;;;;;0.40;0.40;;;21.40;1.00;;;;;;5105855;28;20189;-83
2022/10/03 12:21:12;;;;;;;0.40;0.40;;;21.40;1.00;;;;;;5095514;28;20287;-83
2022/10/03 12:23:55;;;;;;;0.30;0.30;;;19.80;1.00;;;;;;5093212;28;20188;-83
2022/10/03 12:26:46;;;;;;;0.30;0.30;;;19.30;91.90;;;;;;5092539;28;20205;-81
2022/10/03 12:29:15;;;;;;;0.40;0.40;;;20.20;1.00;;;;;;5091038;28;20277;-82
2022/10/03 12:32:05;;;;;;;0.40;0.40;;;18.20;99.90;;;;;;5079393;28;20213;-83
2022/10/03 12:35:06;;;;;;;0.40;0.40;;;17.10;99.90;;;;;;5094234;28;20177;-83
2022/10/03 12:37:57;;;;;;;0.40;0.40;;;16.60;1.00;;;;;;5100706;28;20279;-84
2022/10/03 12:40:29;;;;;;;0.30;0.30;;;16.90;1.00;;;;;;5092063;28;20193;-83
2022/10/03 12:43:30;;;;;;;0.40;0.40;;;18.00;99.90;;;;;;5089896;28;20263;-82
2022/10/03 12:46:28;;;;;;;0.40;0.40;;;17.40;99.90;;;;;;5055745;28;20189;-83
2022/10/03 12:49:28;;;;;;;0.33;0.33;;;19.50;75.60;;;;;;5090727;28;20185;-82
2022/10/03 12:51:58;;;;;;;0.30;0.30;;;20.50;1.00;;;;;;5095998;28;20544;-82
2022/10/03 12:54:42;;;;;;;0.33;0.33;;;21.60;1.00;;;;;;5104185;28;20701;-83
2022/10/03 12:57:17;;;;;;;0.30;0.30;;;21.40;1.00;;;;;;5099319;28;20169;-83
2022/10/03 13:00:11;;;;;;;0.50;0.50;;;21.40;1.00;;;;;;5097164;28;20181;-83
2022/10/03 13:03:01;;;;;;;0.40;0.40;;;21.30;1.00;;;;;;5079869;28;20190;-83
2022/10/03 13:05:37;;;;;;;0.30;0.30;;;21.60;1.00;;;;;;5094381;28;20181;-83
2022/10/03 13:08:16;;;;;;;0.30;0.30;;;21.60;1.00;;;;;;5095952;28;20181;-84
2022/10/03 13:10:46;;;;;;;0.30;0.30;;;20.90;1.00;;;;;;5090959;28;20213;-84
2022/10/03 13:13:51;;;;;;;0.40;0.40;;;20.80;1.00;;;;;;5102685;28;20604;-81
2022/10/03 13:16:41;;;;;;;0.30;0.30;;;21.20;1.00;;;;;;5072056;28;20181;-82
2022/10/03 13:19:26;;;;;;;0.20;0.20;;;21.30;1.00;;;;;;5100436;28;20173;-83
2022/10/03 13:22:02;;;;;;;0.40;0.40;;;20.30;1.00;;;;;;5079784;28;20192;-81
2022/10/03 13:24:57;;;;;;;0.50;0.50;;;18.80;1.00;;;;;;5094134;28;20177;-82
2022/10/03 13:27:36;;;;;;;0.40;0.40;;;18.60;1.00;;;;;;5104450;22;20279;-75
2022/10/03 13:30:23;;;;;;;0.40;0.40;;;18.80;1.00;;;;;;5082484;28;20221;-75
2022/10/03 13:33:21;;;;;;;0.40;0.40;;;18.80;1.00;;;;;;5085241;28;20246;-75
2022/10/03 13:35:58;;;;;;;0.40;0.40;;;18.80;1.00;;;;;;5060698;28;20567;-75
2022/10/03 13:38:44;;;;;;;0.40;0.40;;;18.40;1.00;;;;;;5080842;28;20186;-75
2022/10/03 13:41:37;;;;;;;0.40;0.40;;;18.30;1.00;;;;;;5071897;28;20275;-73
2022/10/03 13:44:22;;;;;;;0.30;0.30;;;18.20;1.00;;;;;;5078012;28;20189;-73
2022/10/03 13:47:09;;;;;;;0.40;0.40;;;17.70;1.00;;;;;;5065274;28;20197;-73
2022/10/03 13:49:43;;;;;;;0.50;0.50;;;17.50;1.00;;;;;;5055446;28;20257;-73
2022/10/03 13:52:22;;;;;;;0.40;0.40;;;17.80;1.00;;;;;;5079283;28;20664;-73
2022/10/03 13:55:07;;;;;;;0.40;0.40;;;18.10;1.00;;;;;;5083908;28;20231;-73
2022/10/03 13:57:46;;;;;;;0.40;0.40;;;17.90;1.00;;;;;;5087354;28;20267;-73
2022/10/03 14:00:15;;;;;;;0.40;0.40;;;18.10;1.00;;;;;;5063872;28;20202;-73
2022/10/03 14:03:01;;;;;;;0.30;0.30;;;18.20;1.00;;;;;;5071046;28;20210;-71
2022/10/03 14:05:44;;;;;;;0.40;0.40;;;18.40;1.00;;;;;;5070337;28;20690;-71
2022/10/03 14:08:27;;;;;;;0.30;0.30;;;17.50;1.00;;;;;;5079108;28;20212;-71
2022/10/03 14:10:57;;;;;;;0.40;0.40;;;17.30;42.70;;;;;;5074224;28;20224;-71
2022/10/03 14:13:32;;;;;;;0.40;0.40;;;16.70;99.90;;;;;;5087460;28;20174;-74
2022/10/03 14:16:26;;;;;;;0.40;0.40;;;16.80;98.90;;;;;;5077466;28;20177;-71
2022/10/03 14:19:05;;;;;;;0.40;0.40;;;17.00;99.90;;;;;;5076739;28;20175;-71
2022/10/03 14:21:53;;;;;;;0.40;0.40;;;17.40;99.90;;;;;;5070907;28;20199;-71
2022/10/03 14:24:50;;;;;;;0.50;0.50;;;17.70;1.00;;;;;;5068246;28;20185;-72
2022/10/03 14:27:36;;;;;;;0.40;0.40;;;17.80;1.00;;;;;;5067768;28;20201;-72
2022/10/03 14:30:12;;;;;;;0.40;0.40;;;17.80;1.00;;;;;;5059309;28;20584;-71
2022/10/03 14:32:53;;;;;;;0.40;0.40;;;17.90;1.00;;;;;;5073220;28;20170;-72
2022/10/03 14:35:33;;;;;;;0.40;0.40;;;17.80;1.00;;;;;;5073597;28;20174;-71
2022/10/03 14:38:07;;;;;;;0.47;0.47;;;17.70;1.00;;;;;;5082652;28;20239;-72
2022/10/03 14:40:47;;;;;;;0.30;0.30;;;17.70;1.00;;;;;;5077108;28;20727;-71
2022/10/03 14:43:24;;;;;;;0.40;0.40;;;17.70;1.00;;;;;;5061862;28;20162;-72
2022/10/03 14:45:55;;;;;;;0.40;0.40;;;17.80;1.00;;;;;;5082159;28;20587;-72
2022/10/03 14:48:36;;;;;;;0.37;0.37;;;17.70;1.00;;;;;;5069321;28;20202;-72
2022/10/03 14:51:25;;;;;;;0.33;0.33;;;17.80;1.00;;;;;;5068708;28;20214;-73
2022/10/03 14:54:01;;;;;;;0.40;0.40;;;17.70;1.00;;;;;;5067347;28;20257;-73
2022/10/03 14:56:29;;;;;;;0.40;0.40;;;17.70;1.00;;;;;;5082060;28;20178;-73
2022/10/03 14:58:59;;;;;;;0.40;0.40;;;17.70;1.00;;;;;;5089581;28;20170;-73
2022/10/03 15:01:27;;;;;;;0.40;0.40;;;17.80;1.00;;;;;;5069451;28;20222;-71
2022/10/03 15:04:05;;;;;;;0.40;0.40;;;17.60;1.00;;;;;;5073563;28;20181;-71
2022/10/03 15:06:52;;;;;;;0.40;0.40;;;17.40;1.00;;;;;;5078377;28;20203;-73
2022/10/03 15:09:23;;;;;;;0.40;0.40;;;17.50;1.00;;;;;;5074005;28;20174;-73
2022/10/03 15:12:01;;;;;;;0.40;0.40;;;17.50;1.00;;;;;;5076560;28;20210;-72
2022/10/03 15:14:31;;;;;;;0.37;0.37;;;17.50;1.00;;;;;;5080483;28;20273;-73
2022/10/03 15:17:00;;;;;;;0.50;0.50;;;17.40;1.00;;;;;;5071969;28;20189;-72
2022/10/03 15:19:38;;;;;;;0.40;0.40;;;17.10;1.00;;;;;;5076486;28;20528;-72
2022/10/03 15:22:18;;;;;;;0.30;0.30;;;17.00;1.00;;;;;;5081650;28;20177;-72
2022/10/03 15:24:45;;;;;;;0.30;0.30;;;17.00;1.00;;;;;;5077080;28;20181;-72
2022/10/03 15:27:19;;;;;;;0.30;0.30;;;17.00;1.00;;;;;;5072445;28;20183;-72
2022/10/03 15:29:50;;;;;;;0.50;0.50;;;17.00;1.00;;;;;;5074670;28;20525;-73
2022/10/03 15:32:22;;;;;;;0.40;0.40;;;17.00;1.00;;;;;;5083225;28;20201;-72
2022/10/03 15:34:53;;;;;;;0.40;0.40;;;16.90;99.90;;;;;;5078665;28;20174;-72